createdAt,value
2023-09-13T00:02:08.982Z,20.30
2023-09-13T00:04:37.129Z,20.20
2023-09-13T00:07:05.671Z,20.00
2023-09-13T00:09:33.724Z,20.10
2023-09-13T00:12:02.135Z,20.00
2023-09-13T00:14:31.510Z,20.00
2023-09-13T00:17:00.382Z,19.90
2023-09-13T00:19:28.907Z,19.90
2023-09-13T00:21:57.253Z,19.80
2023-09-13T00:24:25.404Z,19.80
2023-09-13T00:26:53.479Z,19.90
2023-09-13T00:29:21.533Z,19.80
2023-09-13T00:31:51.182Z,20.20
2023-09-13T00:34:19.404Z,20.10
2023-09-13T00:36:47.465Z,20.00
2023-09-13T00:39:15.763Z,19.90
2023-09-13T00:41:43.864Z,19.70
2023-09-13T00:44:11.932Z,19.60
2023-09-13T00:46:40.766Z,19.70
2023-09-13T00:49:11.198Z,19.80
2023-09-13T00:51:39.355Z,19.70
2023-09-13T00:54:08.567Z,19.60
2023-09-13T00:56:37.718Z,19.50
2023-09-13T00:59:06.657Z,19.40
2023-09-13T01:01:35.531Z,19.30
2023-09-13T01:04:04.674Z,19.30
2023-09-13T01:06:35.661Z,19.20
2023-09-13T01:09:05.578Z,19.20
2023-09-13T01:11:34.151Z,19.30
2023-09-13T01:14:02.628Z,19.30
2023-09-13T01:16:39.910Z,19.30
2023-09-13T01:19:22.227Z,19.30
2023-09-13T01:22:13.647Z,19.40
2023-09-13T01:24:58.703Z,19.70
2023-09-13T01:27:41.436Z,19.70
2023-09-13T01:30:11.588Z,19.70
2023-09-13T01:32:39.663Z,19.70
2023-09-13T01:35:08.126Z,19.60
2023-09-13T01:37:36.283Z,19.40
2023-09-13T01:40:07.623Z,19.30
2023-09-13T01:42:38.427Z,19.20
2023-09-13T01:45:09.681Z,19.20
2023-09-13T01:47:40.324Z,19.10
2023-09-13T01:50:10.218Z,19.10
2023-09-13T01:52:39.046Z,19.10
2023-09-13T01:55:08.271Z,19.10
2023-09-13T01:57:36.757Z,19.10
2023-09-13T02:00:06.691Z,19.20
2023-09-13T02:02:34.826Z,19.30
2023-09-13T02:05:04.688Z,19.10
2023-09-13T02:07:33.521Z,19.00
2023-09-13T02:10:01.654Z,18.80
2023-09-13T02:12:29.755Z,18.80
2023-09-13T02:14:57.774Z,18.70
2023-09-13T02:17:25.921Z,18.70
2023-09-13T02:19:54.002Z,18.60
2023-09-13T02:22:23.578Z,18.70
2023-09-13T02:24:51.706Z,18.80
2023-09-13T02:27:19.730Z,18.60
2023-09-13T02:29:49.959Z,18.50
2023-09-13T02:32:18.013Z,18.50
2023-09-13T02:34:46.327Z,18.40
2023-09-13T02:37:14.354Z,18.40
2023-09-13T02:39:44.347Z,18.40
2023-09-13T02:42:12.508Z,18.50
2023-09-13T02:44:41.473Z,18.60
2023-09-13T02:47:09.559Z,18.90
2023-09-13T02:49:37.784Z,19.00
2023-09-13T02:52:06.506Z,18.90
2023-09-13T02:54:34.596Z,18.70
2023-09-13T02:57:03.957Z,18.60
2023-09-13T02:59:31.991Z,18.60
2023-09-13T03:02:00.159Z,18.60
2023-09-13T03:04:28.716Z,18.60
2023-09-13T03:06:56.858Z,18.80
2023-09-13T03:09:24.949Z,18.90
2023-09-13T03:11:53.183Z,19.00
2023-09-13T03:14:22.557Z,18.90
2023-09-13T03:16:50.693Z,18.90
2023-09-13T03:19:18.782Z,18.90
2023-09-13T03:21:46.849Z,19.00
2023-09-13T03:24:14.914Z,19.00
2023-09-13T03:26:43.025Z,19.10
2023-09-13T03:29:11.081Z,19.10
2023-09-13T03:31:40.565Z,19.10
2023-09-13T03:34:08.761Z,19.10
2023-09-13T03:36:36.887Z,19.00
2023-09-13T03:39:06.226Z,19.00
2023-09-13T03:41:34.549Z,19.00
2023-09-13T03:44:04.350Z,18.90
2023-09-13T03:46:32.536Z,19.00
2023-09-13T03:49:02.185Z,19.00
2023-09-13T03:51:30.362Z,19.00
2023-09-13T03:53:59.472Z,19.00
2023-09-13T03:56:27.539Z,19.00
2023-09-13T03:58:56.427Z,18.90
2023-09-13T04:01:25.496Z,18.90
2023-09-13T04:03:53.790Z,18.90
2023-09-13T04:06:23.396Z,18.90
2023-09-13T04:08:51.627Z,18.90
2023-09-13T04:11:19.681Z,18.90
2023-09-13T04:13:48.216Z,19.00
2023-09-13T04:16:18.481Z,19.20
2023-09-13T04:18:46.725Z,19.20
2023-09-13T04:21:14.793Z,19.20
2023-09-13T04:23:44.762Z,19.10
2023-09-13T04:26:14.438Z,19.10
2023-09-13T04:28:42.846Z,19.10
2023-09-13T04:31:10.932Z,19.00
2023-09-13T04:33:53.451Z,19.00
2023-09-13T04:36:21.993Z,19.00
2023-09-13T04:38:51.662Z,19.10
2023-09-13T04:41:20.055Z,19.10
2023-09-13T04:43:49.441Z,19.10
2023-09-13T04:46:17.882Z,19.10
2023-09-13T04:48:46.140Z,19.10
2023-09-13T04:51:14.689Z,19.20
2023-09-13T04:53:42.904Z,19.20
2023-09-13T04:56:12.656Z,19.20
2023-09-13T04:58:40.729Z,19.20
2023-09-13T05:01:09.347Z,19.30
2023-09-13T05:03:37.680Z,19.30
2023-09-13T05:06:09.073Z,19.20
2023-09-13T05:08:38.367Z,19.20
2023-09-13T05:11:06.665Z,19.20
2023-09-13T05:13:36.677Z,19.20
2023-09-13T05:16:05.037Z,19.10
2023-09-13T05:18:33.219Z,19.20
2023-09-13T05:21:01.415Z,19.20
2023-09-13T05:23:29.574Z,19.30
2023-09-13T05:25:57.762Z,19.30
2023-09-13T05:28:26.314Z,19.40
2023-09-13T05:30:56.315Z,19.50
2023-09-13T05:33:26.527Z,19.50
2023-09-13T05:35:54.700Z,19.50
2023-09-13T05:38:22.871Z,19.50
2023-09-13T05:40:51.085Z,19.70
2023-09-13T05:43:19.253Z,19.70
2023-09-13T05:45:47.515Z,19.80
2023-09-13T05:48:17.025Z,19.80
2023-09-13T05:50:45.244Z,19.80
2023-09-13T05:53:14.463Z,19.80
2023-09-13T05:55:42.564Z,19.80
2023-09-13T05:58:10.746Z,19.90
2023-09-13T06:00:38.975Z,19.90
2023-09-13T06:03:07.410Z,19.90
2023-09-13T06:05:37.001Z,19.90
2023-09-13T06:08:05.508Z,19.90
2023-09-13T06:10:33.576Z,19.90
2023-09-13T06:13:01.754Z,19.90
2023-09-13T06:15:30.047Z,19.90
2023-09-13T06:17:58.532Z,19.90
2023-09-13T06:20:27.756Z,19.90
2023-09-13T06:22:57.597Z,19.80
2023-09-13T06:25:25.750Z,19.70
2023-09-13T06:27:54.040Z,19.80
2023-09-13T06:30:22.464Z,19.80
2023-09-13T06:33:07.639Z,19.90
2023-09-13T06:35:39.823Z,19.90
2023-09-13T06:38:09.949Z,19.90
2023-09-13T06:40:39.074Z,19.90
2023-09-13T06:43:23.427Z,19.90
2023-09-13T06:46:04.658Z,20.10
2023-09-13T06:48:34.404Z,20.10
2023-09-13T06:53:37.144Z,20.30
2023-09-13T06:56:09.404Z,20.60
2023-09-13T06:58:39.637Z,20.80
2023-09-13T07:03:49.820Z,21.40
2023-09-13T07:06:19.095Z,21.70
2023-09-13T07:08:48.539Z,22.10
2023-09-13T07:11:17.418Z,21.90
2023-09-13T07:13:45.541Z,21.80
2023-09-13T07:16:13.670Z,21.80
2023-09-13T07:18:41.785Z,21.70
2023-09-13T07:21:10.250Z,21.40
2023-09-13T07:23:38.314Z,21.40
2023-09-13T07:26:07.720Z,21.30
2023-09-13T07:28:35.956Z,21.20
2023-09-13T07:31:07.639Z,20.70
2023-09-13T07:33:35.745Z,20.80
2023-09-13T07:36:04.222Z,20.80
2023-09-13T07:38:32.510Z,20.70
2023-09-13T07:41:00.794Z,20.80
2023-09-13T07:43:30.339Z,20.60
2023-09-13T07:45:58.380Z,20.80
2023-09-13T07:48:27.945Z,21.00
2023-09-13T07:50:56.172Z,21.00
2023-09-13T07:53:24.453Z,21.00
2023-09-13T07:55:52.791Z,20.80
2023-09-13T07:58:21.143Z,20.70
2023-09-13T08:00:50.680Z,20.80
2023-09-13T08:03:19.044Z,21.10
2023-09-13T08:05:48.677Z,21.30
2023-09-13T08:08:19.477Z,21.70
2023-09-13T08:10:47.904Z,22.10
2023-09-13T08:13:16.066Z,22.30
2023-09-13T08:15:49.623Z,22.40
2023-09-13T08:18:19.880Z,22.40
2023-09-13T08:20:48.336Z,22.40
2023-09-13T08:23:16.516Z,22.50
2023-09-13T08:25:45.637Z,22.50
2023-09-13T08:28:13.715Z,22.10
2023-09-13T08:30:41.925Z,22.00
2023-09-13T08:33:12.264Z,22.10
2023-09-13T08:35:41.928Z,22.30
2023-09-13T08:38:10.105Z,22.10
2023-09-13T08:40:42.989Z,22.20
2023-09-13T08:43:13.154Z,21.90
2023-09-13T08:45:41.991Z,21.70
2023-09-13T08:48:10.685Z,21.60
2023-09-13T08:50:39.445Z,21.60
2023-09-13T08:53:09.915Z,21.60
2023-09-13T08:55:39.115Z,21.50
2023-09-13T08:58:07.260Z,21.20
2023-09-13T09:00:39.185Z,21.20
2023-09-13T09:03:08.942Z,21.20
2023-09-13T09:05:38.521Z,21.00
2023-09-13T09:08:08.970Z,21.10
2023-09-13T09:10:37.826Z,21.00
2023-09-13T09:13:08.074Z,20.50
2023-09-13T09:15:37.377Z,20.20
2023-09-13T09:18:10.146Z,20.20
2023-09-13T09:20:40.271Z,20.10
2023-09-13T09:23:11.180Z,20.00
2023-09-13T09:25:40.746Z,20.20
2023-09-13T09:28:08.885Z,20.40
2023-09-13T09:30:36.979Z,20.50
2023-09-13T09:33:06.073Z,20.60
2023-09-13T09:35:34.458Z,20.70
2023-09-13T09:38:03.075Z,20.90
2023-09-13T09:40:39.050Z,20.80
2023-09-13T09:43:07.230Z,20.80
2023-09-13T09:45:35.549Z,20.90
2023-09-13T09:48:04.242Z,20.60
2023-09-13T09:50:33.843Z,20.60
2023-09-13T09:53:11.300Z,20.90
2023-09-13T09:55:40.821Z,21.20
2023-09-13T09:58:09.512Z,21.70
2023-09-13T10:00:54.133Z,22.00
2023-09-13T10:03:24.308Z,22.10
2023-09-13T10:05:56.972Z,22.10
2023-09-13T10:08:48.520Z,21.40
2023-09-13T10:11:23.092Z,21.30
2023-09-13T10:13:51.629Z,21.30
2023-09-13T10:16:20.553Z,21.70
2023-09-13T10:18:51.090Z,21.80
2023-09-13T10:21:25.269Z,21.90
2023-09-13T10:23:58.184Z,21.90
2023-09-13T10:26:28.492Z,22.00
2023-09-13T10:29:00.981Z,22.20
2023-09-13T10:31:31.447Z,22.20
2023-09-13T10:34:09.088Z,22.50
2023-09-13T10:36:40.890Z,22.40
2023-09-13T10:39:19.939Z,22.10
2023-09-13T10:42:00.035Z,21.80
2023-09-13T10:44:28.696Z,22.10
2023-09-13T10:46:57.714Z,22.10
2023-09-13T10:49:26.846Z,22.10
2023-09-13T10:51:56.882Z,22.30
2023-09-13T10:54:26.397Z,22.30
2023-09-13T10:56:56.058Z,21.90
2023-09-13T10:59:25.979Z,22.10
2023-09-13T11:01:54.397Z,22.30
2023-09-13T11:04:24.758Z,22.80
2023-09-13T11:06:55.644Z,23.10
2023-09-13T11:09:28.433Z,23.50
2023-09-13T11:11:59.406Z,24.00
2023-09-13T11:14:28.599Z,24.00
2023-09-13T11:16:58.836Z,23.70
2023-09-13T11:19:30.309Z,24.50
2023-09-13T11:22:01.674Z,25.10
2023-09-13T11:24:51.066Z,25.30
2023-09-13T11:27:26.978Z,25.80
2023-09-13T11:29:59.760Z,26.00
2023-09-13T11:32:32.172Z,26.00
2023-09-13T11:35:01.643Z,25.30
2023-09-13T11:37:33.529Z,24.40
2023-09-13T11:40:12.496Z,24.60
2023-09-13T11:45:31.586Z,24.70
2023-09-13T11:48:01.901Z,25.00
2023-09-13T11:50:47.700Z,24.80
2023-09-13T11:53:21.572Z,25.00
2023-09-13T11:56:10.128Z,25.40
2023-09-13T11:58:57.033Z,25.70
2023-09-13T12:01:29.806Z,26.00
2023-09-13T12:06:36.407Z,25.90
2023-09-13T12:09:14.953Z,26.10
2023-09-13T12:11:48.752Z,26.50
2023-09-13T12:14:38.130Z,26.50
2023-09-13T12:17:11.567Z,26.40
2023-09-13T12:19:39.874Z,26.40
2023-09-13T12:22:08.082Z,25.90
2023-09-13T12:24:36.205Z,25.80
2023-09-13T12:27:05.156Z,26.80
2023-09-13T12:29:45.365Z,27.60
2023-09-13T12:32:14.021Z,28.70
2023-09-13T12:34:42.383Z,28.70
2023-09-13T12:37:10.837Z,29.20
2023-09-13T12:39:38.964Z,29.10
2023-09-13T12:42:08.087Z,28.60
2023-09-13T12:44:39.574Z,28.00
2023-09-13T12:47:08.855Z,27.50
2023-09-13T12:49:40.174Z,27.40
2023-09-13T12:52:08.379Z,26.70
2023-09-13T12:54:36.665Z,26.60
2023-09-13T12:57:05.344Z,27.10
2023-09-13T12:59:45.395Z,27.20
2023-09-13T13:02:17.888Z,27.20
2023-09-13T13:04:47.106Z,27.70
2023-09-13T13:07:22.570Z,28.70
2023-09-13T13:09:54.419Z,28.50
2023-09-13T13:12:22.673Z,27.50
2023-09-13T13:14:53.129Z,27.50
2023-09-13T13:17:22.455Z,27.90
2023-09-13T13:19:56.907Z,28.90
2023-09-13T13:22:27.509Z,28.30
2023-09-13T13:24:55.835Z,27.20
2023-09-13T13:27:23.986Z,27.40
2023-09-13T13:29:53.438Z,27.30
2023-09-13T13:32:21.586Z,26.60
2023-09-13T13:34:50.972Z,26.60
2023-09-13T13:37:20.835Z,26.80
2023-09-13T13:39:48.956Z,27.50
2023-09-13T13:42:17.175Z,28.20
2023-09-13T13:44:45.252Z,28.50
2023-09-13T13:47:14.615Z,28.20
2023-09-13T13:49:42.692Z,27.10
2023-09-13T13:52:10.760Z,26.60
2023-09-13T13:54:38.912Z,26.40
2023-09-13T13:57:07.036Z,26.20
2023-09-13T13:59:35.387Z,26.00
2023-09-13T14:02:03.866Z,25.90
2023-09-13T14:04:33.518Z,26.00
2023-09-13T14:07:01.646Z,26.10
2023-09-13T14:09:31.091Z,25.80
2023-09-13T14:11:59.270Z,25.40
2023-09-13T14:14:29.458Z,25.70
2023-09-13T14:16:57.677Z,25.60
2023-09-13T14:19:25.775Z,25.60
2023-09-13T14:21:55.362Z,25.40
2023-09-13T14:24:23.523Z,24.90
2023-09-13T14:26:51.598Z,24.70
2023-09-13T14:29:19.711Z,24.70
2023-09-13T14:31:47.850Z,25.10
2023-09-13T14:34:16.017Z,25.20
2023-09-13T14:36:44.116Z,25.20
2023-09-13T14:39:14.152Z,25.00
2023-09-13T14:41:42.396Z,24.70
2023-09-13T14:44:10.458Z,25.00
2023-09-13T14:46:38.670Z,24.80
2023-09-13T14:49:06.925Z,24.80
2023-09-13T14:51:35.480Z,24.70
2023-09-13T14:54:04.817Z,24.60
2023-09-13T14:56:34.786Z,24.30
2023-09-13T14:59:03.417Z,24.30
2023-09-13T15:01:31.515Z,24.40
2023-09-13T15:03:59.696Z,24.90
2023-09-13T15:06:27.941Z,24.70
2023-09-13T15:08:57.743Z,24.40
2023-09-13T15:11:26.075Z,24.50
2023-09-13T15:13:55.518Z,24.40
2023-09-13T15:16:23.927Z,24.30
2023-09-13T15:18:52.155Z,24.50
2023-09-13T15:21:20.353Z,24.80
2023-09-13T15:23:48.830Z,24.70
2023-09-13T15:26:17.233Z,24.40
2023-09-13T15:28:45.705Z,24.70
2023-09-13T15:31:15.640Z,24.50
2023-09-13T15:33:43.755Z,24.30
2023-09-13T15:36:11.891Z,24.30
2023-09-13T15:38:56.742Z,24.00
2023-09-13T15:41:26.801Z,23.80
2023-09-13T15:43:55.102Z,23.60
2023-09-13T15:46:24.639Z,23.70
2023-09-13T15:48:52.855Z,23.70
2023-09-13T15:51:20.971Z,23.60
2023-09-13T15:53:49.068Z,23.70
2023-09-13T15:56:17.432Z,23.80
2023-09-13T15:58:45.710Z,24.00
2023-09-13T16:01:14.089Z,24.30
2023-09-13T16:03:43.746Z,24.60
2023-09-13T16:06:12.028Z,24.90
2023-09-13T16:08:40.284Z,25.20
2023-09-13T16:11:08.407Z,25.00
2023-09-13T16:13:36.535Z,25.20
2023-09-13T16:16:04.822Z,24.90
2023-09-13T16:18:34.764Z,24.60
2023-09-13T16:21:04.467Z,24.30
2023-09-13T16:23:32.643Z,24.60
2023-09-13T16:26:00.725Z,24.60
2023-09-13T16:28:28.776Z,24.50
2023-09-13T16:30:57.011Z,24.20
2023-09-13T16:33:26.152Z,24.10
2023-09-13T16:35:54.620Z,24.20
2023-09-13T16:38:24.117Z,24.10
2023-09-13T16:40:52.444Z,24.20
2023-09-13T16:43:21.194Z,24.00
2023-09-13T16:45:49.363Z,23.80
2023-09-13T16:48:31.849Z,23.50
2023-09-13T16:51:04.318Z,23.20
2023-09-13T16:53:35.846Z,23.00
2023-09-13T16:56:04.379Z,22.80
2023-09-13T16:58:32.467Z,22.70
2023-09-13T17:01:01.325Z,22.60
2023-09-13T17:03:29.828Z,22.40
2023-09-13T17:05:59.627Z,22.30
2023-09-13T17:08:28.075Z,22.30
2023-09-13T17:10:57.991Z,22.30
2023-09-13T17:13:26.840Z,22.20
2023-09-13T17:15:55.470Z,22.20
2023-09-13T17:18:23.814Z,22.20
2023-09-13T17:20:54.220Z,22.10
2023-09-13T17:23:22.899Z,22.10
2023-09-13T17:25:53.652Z,22.00
2023-09-13T17:28:24.779Z,21.90
2023-09-13T17:30:54.052Z,21.90
2023-09-13T17:33:22.394Z,21.80
2023-09-13T17:35:51.043Z,21.80
2023-09-13T17:38:19.122Z,21.80
2023-09-13T17:40:47.992Z,21.80
2023-09-13T17:43:16.441Z,21.80
2023-09-13T17:45:46.687Z,21.80
2023-09-13T17:48:14.839Z,21.80
2023-09-13T17:50:42.945Z,21.90
2023-09-13T17:53:11.635Z,21.90
2023-09-13T17:55:39.813Z,21.80
2023-09-13T17:58:08.143Z,21.80
2023-09-13T18:00:36.430Z,21.80
2023-09-13T18:03:06.709Z,21.80
2023-09-13T18:05:34.822Z,21.70
2023-09-13T18:08:02.915Z,21.70
2023-09-13T18:10:31.500Z,21.70
2023-09-13T18:12:59.657Z,21.70
2023-09-13T18:15:28.460Z,21.70
2023-09-13T18:17:58.324Z,21.60
2023-09-13T18:20:29.363Z,21.60
2023-09-13T18:22:57.590Z,21.50
2023-09-13T18:25:26.196Z,21.50
2023-09-13T18:27:54.315Z,21.50
2023-09-13T18:30:22.926Z,21.50
2023-09-13T18:32:51.071Z,21.50
2023-09-13T18:35:20.399Z,21.50
2023-09-13T18:37:51.066Z,21.50
2023-09-13T18:40:20.589Z,21.50
2023-09-13T18:42:48.820Z,21.50
2023-09-13T18:45:16.937Z,21.50
2023-09-13T18:47:45.636Z,21.50
2023-09-13T18:50:14.303Z,21.50
2023-09-13T18:52:42.408Z,21.50
2023-09-13T18:55:12.626Z,21.40
2023-09-13T18:57:42.635Z,21.40
2023-09-13T19:00:12.561Z,21.40
2023-09-13T19:02:41.456Z,21.40
2023-09-13T19:05:11.833Z,21.30
2023-09-13T19:07:40.047Z,21.40
2023-09-13T19:10:11.088Z,21.30
2023-09-13T19:12:41.387Z,21.30
2023-09-13T19:15:10.535Z,21.30
2023-09-13T19:17:38.675Z,21.20
2023-09-13T19:20:08.241Z,21.20
2023-09-13T19:22:37.661Z,21.10
2023-09-13T19:25:06.269Z,21.10
2023-09-13T19:27:34.914Z,21.00
2023-09-13T19:30:04.776Z,21.00
2023-09-13T19:32:33.680Z,20.90
2023-09-13T19:35:01.850Z,21.00
2023-09-13T19:37:29.956Z,21.00
2023-09-13T19:39:58.137Z,21.00
2023-09-13T19:42:26.811Z,21.00
2023-09-13T19:44:54.910Z,21.00
2023-09-13T19:47:24.525Z,20.90
2023-09-13T19:49:53.072Z,20.80
2023-09-13T19:52:23.756Z,20.80
2023-09-13T19:54:51.810Z,20.80
2023-09-13T19:57:19.914Z,20.80
2023-09-13T19:59:48.254Z,20.80
2023-09-13T20:02:17.032Z,20.80
2023-09-13T20:04:46.967Z,20.80
2023-09-13T20:07:15.442Z,20.80
2023-09-13T20:09:44.568Z,20.70
2023-09-13T20:12:12.683Z,20.70
2023-09-13T20:14:41.216Z,20.70
2023-09-13T20:17:09.522Z,20.60
2023-09-13T20:19:37.590Z,20.50
2023-09-13T20:22:07.745Z,20.50
2023-09-13T20:24:35.887Z,20.40
2023-09-13T20:27:04.486Z,20.30
2023-09-13T20:29:33.047Z,20.30
2023-09-13T20:32:04.463Z,20.30
2023-09-13T20:34:35.325Z,20.30
2023-09-13T20:37:04.293Z,20.20
2023-09-13T20:39:34.282Z,20.10
2023-09-13T20:42:02.314Z,20.00
2023-09-13T20:44:30.619Z,20.00
2023-09-13T20:46:59.531Z,20.10
2023-09-13T20:49:27.896Z,20.10
2023-09-13T20:52:00.073Z,20.10
2023-09-13T20:54:28.701Z,20.10
2023-09-13T20:56:58.778Z,20.10
2023-09-13T20:59:27.446Z,20.10
2023-09-13T21:01:55.772Z,20.10
2023-09-13T21:04:24.592Z,20.00
2023-09-13T21:06:52.833Z,20.00
2023-09-13T21:09:21.015Z,20.00
2023-09-13T21:11:49.219Z,20.00
2023-09-13T21:14:20.379Z,20.00
2023-09-13T21:16:48.790Z,20.00
2023-09-13T21:19:17.100Z,19.90
2023-09-13T21:21:46.168Z,19.90
2023-09-13T21:24:14.553Z,19.90
2023-09-13T21:26:42.750Z,19.80
2023-09-13T21:29:11.559Z,19.70
2023-09-13T21:31:41.311Z,19.70
2023-09-13T21:34:10.357Z,19.80
2023-09-13T21:36:38.573Z,19.70
2023-09-13T21:39:06.977Z,19.60
2023-09-13T21:41:35.210Z,19.60
2023-09-13T21:44:06.442Z,19.50
2023-09-13T21:46:34.722Z,19.40
2023-09-13T21:49:04.406Z,19.30
2023-09-13T21:51:32.639Z,19.20
2023-09-13T21:54:00.759Z,19.20
2023-09-13T21:56:28.920Z,19.30
2023-09-13T21:58:59.313Z,19.30
2023-09-13T22:01:27.579Z,19.30
2023-09-13T22:03:56.198Z,19.30
2023-09-13T22:06:26.110Z,19.20
2023-09-13T22:08:54.274Z,19.10
2023-09-13T22:11:22.877Z,19.00
2023-09-13T22:13:50.984Z,19.10
2023-09-13T22:16:21.564Z,19.00
2023-09-13T22:18:50.246Z,18.90
2023-09-13T22:21:18.351Z,18.90
2023-09-13T22:23:47.831Z,18.80
2023-09-13T22:26:17.935Z,18.80
2023-09-13T22:28:46.646Z,18.80
2023-09-13T22:31:18.083Z,18.70
2023-09-13T22:33:48.591Z,18.70
2023-09-13T22:36:18.182Z,18.70
2023-09-13T22:38:54.408Z,18.60
2023-09-13T22:41:30.675Z,18.50
2023-09-13T22:43:58.742Z,18.50
2023-09-13T22:46:26.969Z,18.50
2023-09-13T22:48:55.179Z,18.50
2023-09-13T22:51:23.456Z,18.50
2023-09-13T22:53:52.925Z,18.50
2023-09-13T22:56:21.025Z,18.40
2023-09-13T22:58:49.212Z,18.30
2023-09-13T23:01:17.519Z,18.20
2023-09-13T23:03:46.694Z,18.10
2023-09-13T23:06:15.448Z,18.10
2023-09-13T23:08:43.668Z,18.00
2023-09-13T23:11:15.123Z,17.90
2023-09-13T23:13:43.359Z,17.80
2023-09-13T23:16:11.505Z,17.80
2023-09-13T23:18:39.692Z,17.70
2023-09-13T23:21:07.948Z,17.70
2023-09-13T23:23:36.253Z,17.60
2023-09-13T23:26:06.025Z,17.50
2023-09-13T23:28:36.373Z,17.50
2023-09-13T23:31:09.652Z,17.50
2023-09-13T23:33:38.863Z,17.70
2023-09-13T23:36:09.930Z,17.60
2023-09-13T23:38:38.474Z,17.60
2023-09-13T23:41:07.412Z,17.50
2023-09-13T23:43:36.953Z,17.60
2023-09-13T23:46:06.008Z,17.50
2023-09-13T23:48:34.558Z,17.50
2023-09-13T23:51:04.181Z,17.50
2023-09-13T23:53:32.604Z,17.50
2023-09-13T23:55:59.906Z,17.50
2023-09-13T23:58:28.008Z,17.50
